Time;durP1;ratioP1;P1;durP2;ratioP2;P2;SDS_P1;SDS_P2;PMS_P1;PMS_P2;Temp;Humidity;BMP_temperature;BMP_pressure;BME280_temperature;BME280_humidity;BME280_pressure;Samples;Min_cycle;Max_cycle;Signal;HPM_P1;HPM_P2
2023/09/14 00:00:35;;;;;;;0.30;0.30;;;;;;;;;;5020365;28;20045;-87
2023/09/14 00:03:02;;;;;;;0.20;0.20;;;;;;;;;;5038519;28;20064;-87
2023/09/14 00:05:29;;;;;;;0.30;0.30;;;;;;;;;;5038391;28;20095;-87
2023/09/14 00:07:55;;;;;;;0.20;0.20;;;;;;;;;;5021663;28;20486;-87
2023/09/14 00:10:21;;;;;;;0.20;0.20;;;;;;;;;;5036786;28;20478;-87
2023/09/14 00:12:47;;;;;;;0.15;0.15;;;;;;;;;;5021717;28;20520;-87
2023/09/14 00:15:13;;;;;;;0.20;0.20;;;;;;;;;;5021664;28;20045;-87
2023/09/14 00:17:40;;;;;;;0.13;0.13;;;;;;;;;;5022160;28;20048;-87
2023/09/14 00:20:06;;;;;;;0.20;0.20;;;;;;;;;;5020794;28;20052;-87
2023/09/14 00:22:33;;;;;;;0.20;0.20;;;;;;;;;;5038114;28;20556;-86
2023/09/14 00:24:59;;;;;;;0.20;0.20;;;;;;;;;;5020817;28;20041;-86
2023/09/14 00:27:25;;;;;;;0.30;0.30;;;;;;;;;;5038238;28;20450;-86
2023/09/14 00:29:51;;;;;;;0.22;0.22;;;;;;;;;;5021120;28;20047;-87
2023/09/14 00:32:17;;;;;;;0.20;0.20;;;;;;;;;;5021017;28;20490;-86
2023/09/14 00:34:43;;;;;;;0.20;0.20;;;;;;;;;;5020511;28;20076;-87
2023/09/14 00:37:09;;;;;;;0.25;0.25;;;;;;;;;;5037638;28;20048;-87
2023/09/14 00:39:35;;;;;;;0.30;0.30;;;;;;;;;;5023644;28;20042;-87
2023/09/14 00:42:00;;;;;;;0.13;0.13;;;;;;;;;;5001251;28;20395;-87
2023/09/14 00:44:27;;;;;;;0.20;0.20;;;;;;;;;;5000325;28;20101;-87
2023/09/14 00:46:53;;;;;;;0.28;0.28;;;;;;;;;;5000786;28;20544;-88
2023/09/14 00:49:19;;;;;;;0.10;0.10;;;;;;;;;;5010381;28;20124;-88
2023/09/14 00:51:46;;;;;;;0.20;0.20;;;;;;;;;;5019641;28;20131;-85
2023/09/14 00:54:13;;;;;;;0.30;0.30;;;;;;;;;;5020826;28;20095;-87
2023/09/14 00:56:39;;;;;;;0.40;0.40;;;;;;;;;;5037455;28;20117;-86
2023/09/14 00:59:05;;;;;;;0.30;0.30;;;;;;;;;;5020164;28;20037;-86
2023/09/14 01:01:32;;;;;;;0.30;0.30;;;;;;;;;;5020544;28;20560;-86
2023/09/14 01:03:58;;;;;;;0.35;0.35;;;;;;;;;;5036077;28;20033;-86
2023/09/14 01:06:27;;;;;;;0.30;0.30;;;;;;;;;;5012513;28;20041;-87
2023/09/14 01:08:54;;;;;;;0.30;0.30;;;;;;;;;;5019925;28;20045;-87
2023/09/14 01:11:20;;;;;;;0.20;0.20;;;;;;;;;;5021130;28;20049;-88
2023/09/14 01:13:46;;;;;;;0.32;0.32;;;;;;;;;;5019745;28;20073;-87
2023/09/14 01:16:15;;;;;;;0.30;0.30;;;;;;;;;;5020445;28;20049;-86
2023/09/14 01:18:49;;;;;;;0.30;0.30;;;;;;;;;;5019413;28;20140;-86
2023/09/14 01:21:30;;;;;;;0.20;0.20;;;;;;;;;;5019196;28;20037;-85
2023/09/14 01:24:09;;;;;;;0.32;0.32;;;;;;;;;;5019797;28;20196;-86
2023/09/14 01:26:35;;;;;;;0.28;0.28;;;;;;;;;;5020661;28;20048;-87
2023/09/14 01:29:04;;;;;;;0.20;0.20;;;;;;;;;;5019819;28;20406;-87
2023/09/14 01:31:30;;;;;;;0.22;0.22;;;;;;;;;;5035810;28;20116;-87
2023/09/14 01:33:57;;;;;;;0.30;0.30;;;;;;;;;;5019127;28;20041;-86
2023/09/14 01:36:32;;;;;;;0.20;0.20;;;;;;;;;;5037232;28;20088;-87
2023/09/14 01:38:59;;;;;;;0.40;0.40;;;;;;;;;;5019697;28;20041;-86
2023/09/14 01:41:25;;;;;;;0.40;0.40;;;;;;;;;;5019320;28;20037;-87
2023/09/14 01:43:54;;;;;;;0.15;0.15;;;;;;;;;;5032707;28;20085;-87
2023/09/14 01:46:20;;;;;;;0.40;0.40;;;;;;;;;;5018947;28;20187;-87
2023/09/14 01:48:46;;;;;;;0.28;0.28;;;;;;;;;;5036195;28;20164;-87
2023/09/14 01:51:12;;;;;;;0.30;0.30;;;;;;;;;;5019574;28;20052;-86
2023/09/14 01:53:38;;;;;;;0.20;0.20;;;;;;;;;;5036214;28;20040;-86
2023/09/14 01:56:04;;;;;;;0.30;0.30;;;;;;;;;;5019228;28;20046;-86
2023/09/14 01:58:30;;;;;;;0.30;0.30;;;;;;;;;;5019744;28;20103;-86
2023/09/14 02:00:56;;;;;;;0.30;0.30;;;;;;;;;;5019076;28;20052;-86
2023/09/14 02:03:22;;;;;;;0.30;0.30;;;;;;;;;;5019625;28;20077;-86
2023/09/14 02:05:58;;;;;;;0.35;0.35;;;;;;;;;;5020036;28;20107;-87
2023/09/14 02:08:23;;;;;;;;;;;;;;;;;;5020485;28;20045;-87
2023/09/14 02:10:50;;;;;;;0.20;0.20;;;;;;;;;;5019933;28;19921;-87
2023/09/14 02:13:16;;;;;;;0.20;0.20;;;;;;;;;;5019668;28;20049;-87
2023/09/14 02:15:42;;;;;;;0.28;0.28;;;;;;;;;;5018744;28;20045;-87
2023/09/14 02:18:08;;;;;;;0.30;0.30;;;;;;;;;;5019700;28;20124;-87
2023/09/14 02:20:35;;;;;;;0.30;0.30;;;;;;;;;;5019261;28;20052;-87
2023/09/14 02:23:02;;;;;;;0.28;0.28;;;;;;;;;;5019290;28;20041;-87
2023/09/14 02:25:28;;;;;;;0.30;0.30;;;;;;;;;;5019360;28;20034;-87
2023/09/14 02:27:54;;;;;;;0.30;0.30;;;;;;;;;;5018768;28;20091;-86
2023/09/14 02:30:20;;;;;;;0.20;0.20;;;;;;;;;;5018305;28;20100;-87
2023/09/14 02:32:46;;;;;;;0.20;0.20;;;;;;;;;;5019015;28;20448;-87
2023/09/14 02:35:12;;;;;;;0.30;0.30;;;;;;;;;;5034090;28;20050;-87
2023/09/14 02:37:38;;;;;;;0.30;0.30;;;;;;;;;;5018679;28;20108;-87
2023/09/14 02:40:06;;;;;;;0.40;0.40;;;;;;;;;;5039898;28;20425;-87
2023/09/14 02:42:36;;;;;;;0.32;0.32;;;;;;;;;;5019300;28;20438;-87
2023/09/14 02:45:02;;;;;;;0.25;0.25;;;;;;;;;;5026545;28;20034;-87
2023/09/14 02:47:28;;;;;;;0.30;0.30;;;;;;;;;;4999333;28;20072;-87
2023/09/14 02:49:54;;;;;;;0.30;0.30;;;;;;;;;;5016594;28;20085;-87
2023/09/14 02:52:20;;;;;;;0.38;0.38;;;;;;;;;;5018164;28;20410;-86
2023/09/14 02:54:46;;;;;;;0.20;0.20;;;;;;;;;;5018125;28;20049;-86
2023/09/14 02:57:12;;;;;;;0.25;0.25;;;;;;;;;;5018635;28;20083;-86
2023/09/14 02:59:38;;;;;;;0.20;0.20;;;;;;;;;;5018370;28;20075;-86
2023/09/14 03:02:04;;;;;;;0.20;0.20;;;;;;;;;;5018260;28;20045;-86
2023/09/14 03:04:30;;;;;;;0.20;0.20;;;;;;;;;;5018964;28;20048;-86
2023/09/14 03:06:56;;;;;;;0.30;0.30;;;;;;;;;;5018432;28;20045;-86
2023/09/14 03:09:23;;;;;;;0.20;0.20;;;;;;;;;;5014808;28;20038;-86
2023/09/14 03:11:49;;;;;;;0.20;0.20;;;;;;;;;;5001729;28;20486;-86
2023/09/14 03:14:15;;;;;;;0.40;0.40;;;;;;;;;;5020268;28;20505;-85
2023/09/14 03:16:40;;;;;;;0.30;0.30;;;;;;;;;;5038007;28;20041;-86
2023/09/14 03:19:07;;;;;;;0.20;0.20;;;;;;;;;;5020515;28;20098;-85
2023/09/14 03:21:33;;;;;;;0.40;0.40;;;;;;;;;;5020214;28;20037;-86
2023/09/14 03:23:59;;;;;;;0.30;0.30;;;;;;;;;;5020252;28;20033;-86
2023/09/14 03:26:27;;;;;;;0.30;0.30;;;;;;;;;;5020856;28;20401;-86
2023/09/14 03:28:54;;;;;;;0.30;0.30;;;;;;;;;;5030519;28;20149;-86
2023/09/14 03:31:20;;;;;;;0.30;0.30;;;;;;;;;;5001239;28;20549;-86
2023/09/14 03:33:47;;;;;;;0.30;0.30;;;;;;;;;;5000725;28;20096;-86
2023/09/14 03:36:13;;;;;;;0.20;0.20;;;;;;;;;;5012086;28;20041;-86
2023/09/14 03:38:39;;;;;;;0.20;0.20;;;;;;;;;;5020569;28;20045;-86
2023/09/14 03:41:05;;;;;;;0.25;0.25;;;;;;;;;;5020599;28;20052;-87
2023/09/14 03:43:31;;;;;;;0.30;0.30;;;;;;;;;;5020602;28;20033;-85
2023/09/14 03:45:58;;;;;;;0.20;0.20;;;;;;;;;;5022208;28;20129;-86
2023/09/14 03:48:24;;;;;;;0.20;0.20;;;;;;;;;;5021474;28;20052;-86
2023/09/14 03:50:51;;;;;;;0.17;0.17;;;;;;;;;;5020225;28;20111;-86
2023/09/14 03:53:18;;;;;;;0.30;0.30;;;;;;;;;;5021105;28;20056;-86
2023/09/14 03:55:44;;;;;;;0.40;0.40;;;;;;;;;;5022153;28;20124;-86
2023/09/14 03:58:10;;;;;;;0.30;0.30;;;;;;;;;;5021194;28;20544;-86
2023/09/14 04:00:36;;;;;;;0.25;0.25;;;;;;;;;;5022076;28;20046;-86
2023/09/14 04:03:02;;;;;;;0.30;0.30;;;;;;;;;;5020606;28;20068;-86
2023/09/14 04:05:28;;;;;;;0.30;0.30;;;;;;;;;;5021821;28;20049;-86
2023/09/14 04:07:54;;;;;;;0.25;0.25;;;;;;;;;;5022648;28;20038;-85
2023/09/14 04:10:20;;;;;;;0.30;0.30;;;;;;;;;;5017242;28;20069;-86
2023/09/14 04:12:46;;;;;;;0.30;0.30;;;;;;;;;;5001753;28;20494;-85
2023/09/14 04:15:12;;;;;;;0.35;0.35;;;;;;;;;;5001992;28;20049;-86
2023/09/14 04:17:39;;;;;;;0.30;0.30;;;;;;;;;;5001790;28;20041;-86
2023/09/14 04:20:11;;;;;;;0.30;0.30;;;;;;;;;;5016394;28;20143;-85
2023/09/14 04:22:41;;;;;;;0.10;0.10;;;;;;;;;;5020575;28;20541;-85
2023/09/14 04:25:07;;;;;;;0.20;0.20;;;;;;;;;;5019744;28;20045;-86
2023/09/14 04:27:33;;;;;;;0.30;0.30;;;;;;;;;;5021067;28;20057;-86
2023/09/14 04:29:59;;;;;;;0.30;0.30;;;;;;;;;;5032087;28;20061;-86
2023/09/14 04:32:25;;;;;;;0.30;0.30;;;;;;;;;;5001069;28;20399;-86
2023/09/14 04:34:51;;;;;;;0.30;0.30;;;;;;;;;;5000315;28;20105;-85
2023/09/14 04:37:17;;;;;;;0.30;0.30;;;;;;;;;;5016764;28;20468;-86
2023/09/14 04:39:45;;;;;;;0.40;0.40;;;;;;;;;;5001587;28;20071;-86
2023/09/14 04:42:11;;;;;;;0.20;0.20;;;;;;;;;;5034102;28;20046;-86
2023/09/14 04:44:37;;;;;;;0.30;0.30;;;;;;;;;;5000422;28;20042;-86
2023/09/14 04:47:03;;;;;;;0.30;0.30;;;;;;;;;;5000772;28;20060;-85
2023/09/14 04:49:29;;;;;;;0.20;0.20;;;;;;;;;;5000300;28;20049;-86
2023/09/14 04:51:55;;;;;;;0.30;0.30;;;;;;;;;;5000573;28;20129;-86
2023/09/14 04:54:21;;;;;;;0.20;0.20;;;;;;;;;;5000790;28;20410;-86
2023/09/14 04:56:47;;;;;;;0.30;0.30;;;;;;;;;;5001424;28;20054;-86
2023/09/14 04:59:13;;;;;;;0.30;0.30;;;;;;;;;;5000523;28;20045;-86
2023/09/14 05:01:39;;;;;;;0.30;0.30;;;;;;;;;;5001036;28;20045;-87
2023/09/14 05:04:05;;;;;;;0.20;0.20;;;;;;;;;;5000485;28;20038;-86
2023/09/14 05:06:31;;;;;;;0.30;0.30;;;;;;;;;;5000715;28;20038;-86
2023/09/14 05:08:58;;;;;;;0.30;0.30;;;;;;;;;;5000253;28;20133;-87
2023/09/14 05:11:24;;;;;;;0.30;0.30;;;;;;;;;;5000173;28;20124;-86
2023/09/14 05:13:50;;;;;;;0.30;0.30;;;;;;;;;;4999619;28;20121;-86
2023/09/14 05:16:16;;;;;;;0.20;0.20;;;;;;;;;;4999468;28;20048;-86
2023/09/14 05:18:42;;;;;;;0.40;0.40;;;;;;;;;;4999704;28;20041;-86
2023/09/14 05:21:08;;;;;;;0.30;0.30;;;;;;;;;;5000000;28;20045;-85
2023/09/14 05:23:35;;;;;;;0.38;0.38;;;;;;;;;;5015076;28;20068;-87
2023/09/14 05:26:01;;;;;;;0.25;0.25;;;;;;;;;;5054967;28;20045;-86
2023/09/14 05:28:28;;;;;;;0.30;0.30;;;;;;;;;;5052476;28;20111;-87
2023/09/14 05:30:54;;;;;;;0.30;0.30;;;;;;;;;;5018414;28;20095;-87
2023/09/14 05:33:20;;;;;;;0.30;0.30;;;;;;;;;;5018805;28;20045;-87
2023/09/14 05:35:48;;;;;;;0.30;0.30;;;;;;;;;;5017978;28;20517;-87
2023/09/14 05:38:15;;;;;;;0.30;0.30;;;;;;;;;;5019153;28;20482;-86
2023/09/14 05:40:41;;;;;;;0.30;0.30;;;;;;;;;;5018576;28;20037;-86
2023/09/14 05:43:07;;;;;;;0.30;0.30;;;;;;;;;;5035557;28;20044;-87
2023/09/14 05:45:33;;;;;;;0.20;0.20;;;;;;;;;;5018632;28;20401;-86
2023/09/14 05:48:04;;;;;;;0.30;0.30;;;;;;;;;;5035821;28;20076;-87
2023/09/14 05:50:30;;;;;;;0.30;0.30;;;;;;;;;;5018592;28;20103;-86
2023/09/14 05:52:56;;;;;;;0.30;0.30;;;;;;;;;;5019318;28;20041;-86
2023/09/14 05:55:22;;;;;;;0.35;0.35;;;;;;;;;;5019622;28;20041;-86
2023/09/14 05:57:48;;;;;;;0.30;0.30;;;;;;;;;;5034352;28;20044;-85
2023/09/14 06:00:16;;;;;;;0.40;0.40;;;;;;;;;;5018096;28;20037;-85
2023/09/14 06:02:42;;;;;;;0.30;0.30;;;;;;;;;;5017901;28;20119;-85
2023/09/14 06:05:09;;;;;;;0.30;0.30;;;;;;;;;;5017562;28;20048;-85
2023/09/14 06:07:35;;;;;;;0.40;0.40;;;;;;;;;;5017524;28;20037;-86
2023/09/14 06:10:01;;;;;;;0.30;0.30;;;;;;;;;;5034910;28;20084;-86
2023/09/14 06:12:29;;;;;;;0.38;0.38;;;;;;;;;;5035723;28;20118;-86
2023/09/14 06:14:55;;;;;;;0.30;0.30;;;;;;;;;;5018960;28;20067;-87
2023/09/14 06:17:21;;;;;;;0.40;0.40;;;;;;;;;;5020044;28;20052;-87
2023/09/14 06:19:47;;;;;;;0.20;0.20;;;;;;;;;;5014099;28;20053;-84
2023/09/14 06:22:13;;;;;;;0.30;0.30;;;;;;;;;;5016762;28;20437;-87
2023/09/14 06:24:39;;;;;;;0.30;0.30;;;;;;;;;;4997542;28;20041;-85
2023/09/14 06:27:05;;;;;;;0.30;0.30;;;;;;;;;;5006346;28;20486;-86
2023/09/14 06:29:31;;;;;;;0.28;0.28;;;;;;;;;;5034709;28;20080;-86
2023/09/14 06:31:57;;;;;;;0.25;0.25;;;;;;;;;;5035539;28;20529;-86
2023/09/14 06:34:24;;;;;;;0.20;0.20;;;;;;;;;;5017278;28;20084;-86
2023/09/14 06:36:50;;;;;;;0.30;0.30;;;;;;;;;;5018259;28;20068;-88
2023/09/14 06:39:16;;;;;;;0.30;0.30;;;;;;;;;;5017792;28;20128;-87
2023/09/14 06:41:42;;;;;;;0.30;0.30;;;;;;;;;;5017940;28;20080;-88
2023/09/14 06:44:08;;;;;;;0.38;0.38;;;;;;;;;;5014933;28;20105;-89
2023/09/14 06:46:34;;;;;;;0.30;0.30;;;;;;;;;;5017830;28;20041;-85
2023/09/14 06:49:00;;;;;;;0.30;0.30;;;;;;;;;;5028497;28;20037;-86
2023/09/14 06:51:28;;;;;;;0.30;0.30;;;;;;;;;;5020780;28;20405;-89
2023/09/14 06:53:54;;;;;;;0.20;0.20;;;;;;;;;;5029517;28;20056;-87
2023/09/14 06:56:20;;;;;;;0.30;0.30;;;;;;;;;;5016629;28;20036;-86
2023/09/14 06:58:46;;;;;;;0.20;0.20;;;;;;;;;;5021681;28;20486;-86
2023/09/14 07:01:12;;;;;;;0.25;0.25;;;;;;;;;;5017882;28;20030;-86
2023/09/14 07:03:38;;;;;;;0.38;0.38;;;;;;;;;;5021022;28;20079;-87
2023/09/14 07:06:04;;;;;;;0.30;0.30;;;;;;;;;;5021622;28;20033;-86
2023/09/14 07:08:30;;;;;;;0.20;0.20;;;;;;;;;;5030040;28;20037;-87
2023/09/14 07:10:57;;;;;;;0.30;0.30;;;;;;;;;;5035002;28;20052;-87
2023/09/14 07:13:25;;;;;;;0.20;0.20;;;;;;;;;;5030581;28;20068;-87
2023/09/14 07:15:52;;;;;;;0.20;0.20;;;;;;;;;;5022592;28;20124;-87
2023/09/14 07:18:28;;;;;;;0.30;0.30;;;;;;;;;;5036895;28;20048;-86
2023/09/14 07:20:56;;;;;;;0.20;0.20;;;;;;;;;;5023478;28;20046;-88
2023/09/14 07:23:22;;;;;;;0.20;0.20;;;;;;;;;;5018830;28;20072;-86
2023/09/14 07:25:48;;;;;;;0.30;0.30;;;;;;;;;;5016642;28;20041;-88
2023/09/14 07:28:15;;;;;;;0.32;0.32;;;;;;;;;;5021980;28;20033;-87
2023/09/14 07:30:41;;;;;;;0.30;0.30;;;;;;;;;;5020641;28;20042;-87
2023/09/14 07:33:08;;;;;;;0.20;0.20;;;;;;;;;;5017144;28;20045;-85
2023/09/14 07:35:35;;;;;;;0.20;0.20;;;;;;;;;;5016311;28;20053;-86
2023/09/14 07:38:01;;;;;;;0.30;0.30;;;;;;;;;;5021954;28;20045;-85
2023/09/14 07:40:27;;;;;;;0.30;0.30;;;;;;;;;;5032428;28;20292;-86
2023/09/14 07:42:53;;;;;;;0.20;0.20;;;;;;;;;;5028851;28;20503;-85
2023/09/14 07:45:19;;;;;;;0.20;0.20;;;;;;;;;;5036323;28;20037;-86
2023/09/14 07:47:45;;;;;;;0.40;0.40;;;;;;;;;;5017857;28;20049;-86
2023/09/14 07:50:11;;;;;;;0.20;0.20;;;;;;;;;;5004038;28;20042;-87
2023/09/14 07:52:38;;;;;;;0.10;0.10;;;;;;;;;;5035206;28;20401;-87
2023/09/14 07:55:04;;;;;;;0.17;0.17;;;;;;;;;;5015566;28;20494;-88
2023/09/14 07:57:30;;;;;;;0.30;0.30;;;;;;;;;;5018899;28;20041;-86
2023/09/14 07:59:56;;;;;;;0.25;0.25;;;;;;;;;;5035335;28;20042;-85
2023/09/14 08:02:22;;;;;;;0.30;0.30;;;;;;;;;;5019983;28;20041;-85
2023/09/14 08:04:48;;;;;;;0.20;0.20;;;;;;;;;;5017291;28;20045;-88
2023/09/14 08:07:15;;;;;;;0.38;0.38;;;;;;;;;;5022191;28;20041;-87
2023/09/14 08:09:41;;;;;;;0.20;0.20;;;;;;;;;;5021906;28;20037;-86
2023/09/14 08:12:12;;;;;;;0.10;0.10;;;;;;;;;;5017352;28;20128;-87
2023/09/14 08:14:39;;;;;;;0.20;0.20;;;;;;;;;;5021347;28;20045;-87
2023/09/14 08:17:05;;;;;;;0.20;0.20;;;;;;;;;;5035675;28;20046;-84
2023/09/14 08:19:31;;;;;;;0.20;0.20;;;;;;;;;;5020817;28;20037;-86
2023/09/14 08:21:59;;;;;;;0.22;0.22;;;;;;;;;;5014221;28;20044;-84
2023/09/14 08:24:25;;;;;;;0.20;0.20;;;;;;;;;;5013248;28;20033;-85
2023/09/14 08:26:51;;;;;;;0.10;0.10;;;;;;;;;;5037019;28;20045;-87
2023/09/14 08:29:17;;;;;;;0.30;0.30;;;;;;;;;;5001157;28;20073;-86
2023/09/14 08:31:45;;;;;;;0.30;0.30;;;;;;;;;;5021063;28;20079;-85
2023/09/14 08:34:11;;;;;;;0.20;0.20;;;;;;;;;;5020845;28;20115;-84
2023/09/14 08:36:38;;;;;;;0.20;0.20;;;;;;;;;;5036792;28;20045;-87
2023/09/14 08:39:04;;;;;;;0.30;0.30;;;;;;;;;;5022583;28;20041;-87
2023/09/14 08:41:36;;;;;;;0.10;0.10;;;;;;;;;;5039815;28;20509;-90
2023/09/14 08:44:03;;;;;;;0.17;0.17;;;;;;;;;;5024362;28;20490;-87
2023/09/14 08:46:29;;;;;;;0.10;0.10;;;;;;;;;;5022381;28;20049;-88
2023/09/14 08:48:56;;;;;;;0.20;0.20;;;;;;;;;;5020758;28;20053;-87
2023/09/14 08:51:25;;;;;;;0.20;0.20;;;;;;;;;;5003926;28;20048;-85
2023/09/14 08:53:52;;;;;;;0.20;0.20;;;;;;;;;;5020789;28;20128;-88
2023/09/14 08:56:18;;;;;;;0.20;0.20;;;;;;;;;;5023845;28;20555;-85
2023/09/14 08:58:44;;;;;;;0.20;0.20;;;;;;;;;;5008112;28;20045;-85
2023/09/14 09:01:11;;;;;;;1.15;1.05;;;;;;;;;;5023125;28;20100;-85
2023/09/14 09:03:39;;;;;;;0.20;0.20;;;;;;;;;;5021762;28;20037;-85
2023/09/14 09:06:05;;;;;;;0.20;0.20;;;;;;;;;;5038084;28;20041;-85
2023/09/14 09:08:32;;;;;;;0.30;0.30;;;;;;;;;;5022298;28;20091;-86
2023/09/14 09:10:59;;;;;;;0.20;0.20;;;;;;;;;;5021741;28;20041;-85
2023/09/14 09:13:32;;;;;;;0.20;0.20;;;;;;;;;;5039155;28;20041;-87
2023/09/14 09:15:59;;;;;;;0.10;0.10;;;;;;;;;;5040076;28;20045;-85
2023/09/14 09:18:26;;;;;;;0.30;0.30;;;;;;;;;;5039626;28;20045;-86
2023/09/14 09:20:52;;;;;;;0.15;0.15;;;;;;;;;;5038961;28;20046;-86
2023/09/14 09:23:40;;;;;;;0.20;0.20;;;;;;;;;;5023133;28;20092;-86
2023/09/14 09:26:09;;;;;;;0.20;0.20;;;;;;;;;;5037200;28;20085;-85
2023/09/14 09:28:35;;;;;;;0.20;0.20;;;;;;;;;;5020868;28;20083;-85
2023/09/14 09:31:02;;;;;;;0.20;0.20;;;;;;;;;;5037585;28;20045;-86
2023/09/14 09:33:47;;;;;;;0.30;0.30;;;;;;;;;;5018920;28;20052;-85
2023/09/14 09:36:19;;;;;;;0.20;0.20;;;;;;;;;;5020574;28;20037;-86
2023/09/14 09:38:49;;;;;;;0.20;0.20;;;;;;;;;;5015938;28;20069;-86
2023/09/14 09:41:16;;;;;;;0.10;0.10;;;;;;;;;;5010188;28;20437;-86
2023/09/14 09:43:44;;;;;;;0.10;0.10;;;;;;;;;;5036903;28;20059;-86
2023/09/14 09:46:16;;;;;;;0.30;0.30;;;;;;;;;;5020123;28;20037;-84
2023/09/14 09:48:43;;;;;;;0.20;0.20;;;;;;;;;;5032509;28;20073;-84
2023/09/14 09:51:09;;;;;;;0.13;0.13;;;;;;;;;;5037246;28;20510;-85
2023/09/14 09:53:36;;;;;;;0.30;0.30;;;;;;;;;;5024037;28;20494;-85
2023/09/14 09:56:02;;;;;;;0.20;0.20;;;;;;;;;;5017903;28;20045;-85
2023/09/14 09:58:38;;;;;;;0.10;0.10;;;;;;;;;;5037603;28;20056;-85
2023/09/14 10:01:06;;;;;;;0.13;0.13;;;;;;;;;;5037514;28;20044;-85
2023/09/14 10:03:33;;;;;;;0.10;0.10;;;;;;;;;;5024025;28;20042;-84
2023/09/14 10:06:00;;;;;;;0.20;0.20;;;;;;;;;;5020133;28;20033;-84
2023/09/14 10:08:27;;;;;;;0.10;0.10;;;;;;;;;;5020672;28;20041;-85
2023/09/14 10:10:53;;;;;;;0.10;0.10;;;;;;;;;;5033948;28;20128;-86
2023/09/14 10:13:20;;;;;;;0.10;0.10;;;;;;;;;;5032998;28;20052;-86
2023/09/14 10:15:46;;;;;;;0.10;0.10;;;;;;;;;;5009548;28;20037;-86
2023/09/14 10:18:13;;;;;;;0.30;0.30;;;;;;;;;;5020040;28;20041;-86
2023/09/14 10:20:51;;;;;;;0.10;0.10;;;;;;;;;;5022603;28;20418;-85
2023/09/14 10:23:19;;;;;;;0.20;0.20;;;;;;;;;;5028486;28;20048;-85
2023/09/14 10:25:47;;;;;;;0.20;0.20;;;;;;;;;;5049515;28;20505;-85
2023/09/14 10:28:16;;;;;;;0.20;0.20;;;;;;;;;;5047199;28;20037;-86
2023/09/14 10:30:42;;;;;;;0.20;0.20;;;;;;;;;;5028557;28;20095;-86
2023/09/14 10:33:09;;;;;;;0.10;0.10;;;;;;;;;;5028693;28;20136;-86
2023/09/14 10:35:37;;;;;;;0.20;0.20;;;;;;;;;;5042832;28;20048;-86
2023/09/14 10:38:05;;;;;;;0.20;0.20;;;;;;;;;;5024852;28;20183;-87
2023/09/14 10:40:34;;;;;;;0.20;0.20;;;;;;;;;;5019800;28;20037;-86
2023/09/14 10:43:00;;;;;;;0.17;0.17;;;;;;;;;;5040297;28;20548;-87
2023/09/14 10:45:30;;;;;;;0.22;0.22;;;;;;;;;;5035512;28;20036;-84
2023/09/14 10:47:57;;;;;;;0.10;0.10;;;;;;;;;;5018004;28;20570;-85
2023/09/14 10:50:29;;;;;;;0.10;0.10;;;;;;;;;;5020955;28;20498;-85
2023/09/14 10:52:56;;;;;;;0.10;0.10;;;;;;;;;;5021260;28;20037;-84
2023/09/14 10:55:25;;;;;;;0.10;0.10;;;;;;;;;;5024599;28;20053;-85
2023/09/14 10:57:51;;;;;;;0.10;0.10;;;;;;;;;;5043497;28;20041;-84
2023/09/14 11:03:23;;;;;;;0.10;0.10;;;;;;;;;;5042452;28;20053;-84
2023/09/14 11:05:50;;;;;;;0.10;0.10;;;;;;;;;;5017928;28;20034;-85
2023/09/14 11:08:18;;;;;;;0.30;0.30;;;;;;;;;;5027660;28;20052;-84
2023/09/14 11:10:58;;;;;;;0.30;0.30;;;;;;;;;;5021478;28;20041;-86
2023/09/14 11:13:25;;;;;;;0.10;0.10;;;;;;;;;;5018866;28;20124;-85
2023/09/14 11:15:55;;;;;;;0.00;0.00;;;;;;;;;;5040077;28;20084;-85
2023/09/14 11:18:33;;;;;;;0.10;0.10;;;;;;;;;;5040975;28;20056;-85
2023/09/14 11:20:59;;;;;;;0.10;0.10;;;;;;;;;;5041673;28;20088;-84
2023/09/14 11:23:36;;;;;;;0.10;0.10;;;;;;;;;;5041901;28;20406;-85
2023/09/14 11:26:03;;;;;;;0.10;0.10;;;;;;;;;;5041580;28;20398;-84
2023/09/14 11:28:31;;;;;;;0.20;0.20;;;;;;;;;;5040356;28;20037;-85
2023/09/14 11:30:57;;;;;;;0.10;0.10;;;;;;;;;;5038213;28;20049;-85
2023/09/14 11:33:24;;;;;;;0.13;0.13;;;;;;;;;;5017727;28;20048;-84
2023/09/14 11:35:53;;;;;;;0.10;0.10;;;;;;;;;;5019995;28;20044;-84
2023/09/14 11:38:23;;;;;;;0.20;0.20;;;;;;;;;;5020746;28;20068;-84
2023/09/14 11:40:50;;;;;;;0.10;0.10;;;;;;;;;;5019730;28;20550;-85
2023/09/14 11:43:38;;;;;;;0.20;0.20;;;;;;;;;;5017321;28;20040;-85
2023/09/14 11:46:17;;;;;;;0.10;0.10;;;;;;;;;;5021711;28;20044;-84
2023/09/14 11:48:45;;;;;;;0.10;0.10;;;;;;;;;;5038499;28;20046;-84
2023/09/14 11:51:11;;;;;;;0.15;0.15;;;;;;;;;;5036536;28;20045;-85
2023/09/14 11:53:37;;;;;;;0.10;0.10;;;;;;;;;;5037954;28;20041;-85
2023/09/14 11:56:18;;;;;;;0.20;0.20;;;;;;;;;;5035585;28;20041;-85
2023/09/14 11:58:45;;;;;;;0.10;0.10;;;;;;;;;;5032637;28;20049;-84
2023/09/14 12:01:12;;;;;;;0.28;0.28;;;;;;;;;;5015606;28;20037;-85
2023/09/14 12:03:38;;;;;;;0.20;0.20;;;;;;;;;;5035630;28;20398;-85
2023/09/14 12:06:05;;;;;;;0.10;0.10;;;;;;;;;;5021593;28;20044;-85
2023/09/14 12:08:35;;;;;;;0.10;0.10;;;;;;;;;;5036092;28;20037;-85
2023/09/14 12:11:01;;;;;;;0.10;0.10;;;;;;;;;;5022311;28;20487;-85
2023/09/14 12:13:27;;;;;;;0.17;0.17;;;;;;;;;;5026192;28;20045;-84
2023/09/14 12:16:08;;;;;;;0.10;0.10;;;;;;;;;;5037492;28;20405;-85
2023/09/14 12:18:39;;;;;;;0.10;0.10;;;;;;;;;;5009587;28;20045;-85
2023/09/14 12:21:07;;;;;;;0.10;0.10;;;;;;;;;;5021097;28;20091;-84
2023/09/14 12:23:36;;;;;;;0.10;0.10;;;;;;;;;;5038384;28;20430;-85
2023/09/14 12:26:03;;;;;;;0.22;0.22;;;;;;;;;;5041023;28;20034;-84
2023/09/14 12:28:29;;;;;;;0.00;0.00;;;;;;;;;;5022741;28;20037;-85
2023/09/14 12:31:21;;;;;;;0.10;0.10;;;;;;;;;;5039103;28;20513;-85
2023/09/14 12:33:47;;;;;;;0.10;0.10;;;;;;;;;;5002655;28;20562;-85
2023/09/14 12:36:13;;;;;;;0.10;0.10;;;;;;;;;;5010766;28;20132;-84
2023/09/14 12:38:40;;;;;;;0.05;0.05;;;;;;;;;;5020671;28;20405;-85
2023/09/14 12:41:07;;;;;;;0.10;0.10;;;;;;;;;;5020082;28;20045;-85
2023/09/14 12:43:39;;;;;;;0.10;0.10;;;;;;;;;;5030766;28;20037;-85
2023/09/14 12:46:05;;;;;;;0.10;0.10;;;;;;;;;;5036724;28;20109;-85
2023/09/14 12:48:31;;;;;;;0.00;0.00;;;;;;;;;;5038267;28;20041;-84
2023/09/14 12:51:16;;;;;;;0.00;0.00;;;;;;;;;;5031649;28;20049;-83
2023/09/14 12:53:43;;;;;;;0.20;0.20;;;;;;;;;;5021289;28;20103;-83
2023/09/14 12:56:22;;;;;;;0.00;0.00;;;;;;;;;;5020937;28;20045;-84
2023/09/14 12:58:48;;;;;;;0.00;0.00;;;;;;;;;;5022358;28;20056;-85
2023/09/14 13:01:15;;;;;;;0.20;0.20;;;;;;;;;;5021060;28;20045;-84
2023/09/14 13:03:41;;;;;;;0.10;0.10;;;;;;;;;;5013143;28;20444;-84
2023/09/14 13:06:07;;;;;;;0.17;0.17;;;;;;;;;;5020063;28;20556;-84
2023/09/14 13:08:49;;;;;;;0.10;0.10;;;;;;;;;;5020087;28;20041;-85
2023/09/14 13:11:29;;;;;;;0.00;0.00;;;;;;;;;;5019462;28;20049;-85
2023/09/14 13:13:55;;;;;;;0.10;0.10;;;;;;;;;;5035894;28;20041;-84
2023/09/14 13:16:21;;;;;;;0.20;0.20;;;;;;;;;;5019590;28;20033;-84
2023/09/14 13:18:48;;;;;;;0.10;0.10;;;;;;;;;;5036115;28;20410;-84
2023/09/14 13:21:19;;;;;;;0.08;0.08;;;;;;;;;;5018966;28;20520;-85
2023/09/14 13:23:46;;;;;;;0.13;0.13;;;;;;;;;;4999950;28;20517;-85
2023/09/14 13:26:12;;;;;;;0.10;0.10;;;;;;;;;;5004779;28;20038;-85
2023/09/14 13:28:38;;;;;;;0.03;0.03;;;;;;;;;;5029600;28;20494;-85
2023/09/14 13:31:04;;;;;;;0.13;0.13;;;;;;;;;;5036811;28;20510;-84
2023/09/14 13:33:30;;;;;;;0.10;0.10;;;;;;;;;;5037126;28;20128;-84
2023/09/14 13:36:00;;;;;;;0.08;0.08;;;;;;;;;;5020629;28;20076;-85
2023/09/14 13:38:42;;;;;;;0.15;0.15;;;;;;;;;;5016771;28;20061;-84
2023/09/14 13:41:09;;;;;;;0.10;0.10;;;;;;;;;;5035710;28;20087;-85
2023/09/14 13:43:35;;;;;;;0.10;0.10;;;;;;;;;;5035966;28;20045;-84
2023/09/14 13:46:02;;;;;;;0.20;0.20;;;;;;;;;;5010889;28;20038;-85
2023/09/14 13:48:28;;;;;;;0.10;0.10;;;;;;;;;;5022324;28;20037;-85
2023/09/14 13:50:54;;;;;;;0.10;0.10;;;;;;;;;;5035697;28;20045;-84
2023/09/14 13:53:20;;;;;;;0.10;0.10;;;;;;;;;;5022788;28;20055;-85
2023/09/14 13:55:54;;;;;;;0.10;0.10;;;;;;;;;;5035233;28;20041;-84
2023/09/14 13:58:20;;;;;;;0.10;0.10;;;;;;;;;;5018757;28;20042;-85
2023/09/14 14:00:46;;;;;;;0.00;0.00;;;;;;;;;;5029367;28;20045;-85
2023/09/14 14:03:12;;;;;;;0.10;0.10;;;;;;;;;;5012855;28;20042;-85
2023/09/14 14:05:39;;;;;;;0.13;0.13;;;;;;;;;;5035690;28;20047;-86
2023/09/14 14:08:09;;;;;;;0.10;0.10;;;;;;;;;;5019638;28;20459;-85
2023/09/14 14:10:35;;;;;;;0.10;0.10;;;;;;;;;;5036131;28;20041;-85
2023/09/14 14:13:02;;;;;;;0.10;0.10;;;;;;;;;;5036585;28;20414;-84
2023/09/14 14:15:29;;;;;;;0.00;0.00;;;;;;;;;;5036269;28;20049;-84
2023/09/14 14:17:55;;;;;;;0.00;0.00;;;;;;;;;;5019443;28;20518;-84
2023/09/14 14:20:22;;;;;;;0.00;0.00;;;;;;;;;;5052231;28;20076;-85
2023/09/14 14:22:51;;;;;;;0.20;0.20;;;;;;;;;;5036279;28;20510;-84
2023/09/14 14:25:17;;;;;;;0.10;0.10;;;;;;;;;;5036078;28;20049;-84
2023/09/14 14:27:43;;;;;;;0.00;0.00;;;;;;;;;;5036689;28;20525;-85
2023/09/14 14:30:09;;;;;;;0.20;0.20;;;;;;;;;;5019922;28;20077;-85
2023/09/14 14:32:35;;;;;;;0.00;0.00;;;;;;;;;;5036085;28;20462;-85
2023/09/14 14:35:03;;;;;;;0.10;0.10;;;;;;;;;;5019540;28;20066;-85
2023/09/14 14:37:30;;;;;;;0.00;0.00;;;;;;;;;;5030816;28;20045;-84
2023/09/14 14:39:56;;;;;;;0.00;0.00;;;;;;;;;;5035852;28;20045;-84
2023/09/14 14:42:27;;;;;;;0.10;0.10;;;;;;;;;;5019827;28;20050;-83
2023/09/14 14:44:53;;;;;;;0.10;0.10;;;;;;;;;;5017877;28;20061;-84
2023/09/14 14:47:19;;;;;;;0.20;0.20;;;;;;;;;;4999418;28;20128;-84